PWSweather.com
Personal Weather Stations
Station Observations

YeovilGB

Lat: 50.949, Lon: -2.627

Elevation: 70

Station Type: Vantage Pro

http://www.yeovil-weather.me.uk/

High Low Average
Temperature 53.1°F11.7°C 40.7°F4.8°C 49.5°F9.7°C
Dew Point 50.1°F10.1°C 39.4°F4.1°C 47.1°F8.4°C
Winds 18.4 mph 29.6 kmh Calm Calm 9.0 mph SSW14.5 kmh SSW
Wind Gusts 32.2 mph51.8 kmh -- 15.0 mph24.1 kmh
Humidity 96% 88% 91%
Pressure 30.06 in1017.9 mb 29.39 in995.3 mb -
Precipitation 0.65 in16.5 mm - -
Hour Temp Dew Point Humidity Winds Wind Gusts Pressure Precip Precip Rate Daily Precip Total
12:00 AM 50.4°F10.2°C 47.9°F8.8°C 91% 6.9 mph SSW11.1 kmh SSW 9.2 mph14.8 kmh 30.06 in1017.9 mb - 0.00 in0.0 mm 0.00 in0.0 mm
12:10 AM 50.4°F10.2°C 47.9°F8.8°C 91% 5.8 mph SSW9.3 kmh SSW 12.7 mph20.4 kmh 30.05 in1017.6 mb - 0.00 in0.0 mm 0.00 in0.0 mm
12:20 AM 50.4°F10.2°C 47.9°F8.8°C 91% 8.1 mph SW13.0 kmh SW 15.0 mph24.1 kmh 30.05 in1017.6 mb - 0.00 in0.0 mm 0.00 in0.0 mm
12:30 AM 50.4°F10.2°C 47.8°F8.8°C 91% 5.8 mph SSW9.3 kmh SSW 6.9 mph11.1 kmh 30.04 in1017.3 mb - 0.00 in0.0 mm 0.00 in0.0 mm
12:40 AM 50.3°F10.2°C 47.8°F8.8°C 91% 8.1 mph S13.0 kmh S 16.1 mph25.9 kmh 30.04 in1017.3 mb - 0.00 in0.0 mm 0.00 in0.0 mm
12:50 AM 50.3°F10.2°C 47.8°F8.8°C 91% 6.9 mph SSW11.1 kmh SSW 10.4 mph16.7 kmh 30.04 in1017.3 mb - 0.00 in0.0 mm 0.00 in0.0 mm
01:00 AM 50.3°F10.2°C 48.1°F8.9°C 92% 8.1 mph SW13.0 kmh SW 16.1 mph25.9 kmh 30.03 in1016.9 mb - 0.00 in0.0 mm 0.00 in0.0 mm
01:10 AM 50.1°F10.1°C 47.9°F8.8°C 92% 6.9 mph SW11.1 kmh SW 10.4 mph16.7 kmh 30.02 in1016.6 mb - 0.00 in0.0 mm 0.00 in0.0 mm
01:20 AM 49.9°F9.9°C 48.0°F8.9°C 93% 5.8 mph SSW9.3 kmh SSW 9.2 mph14.8 kmh 30.02 in1016.6 mb - 0.00 in0.0 mm 0.00 in0.0 mm
01:30 AM 50.0°F10.0°C 48.1°F8.9°C 93% 4.6 mph SSW7.4 kmh SSW 6.9 mph11.1 kmh 30.01 in1016.3 mb - 0.00 in0.0 mm 0.00 in0.0 mm
01:40 AM 50.2°F10.1°C 48.5°F9.2°C 94% 8.1 mph SSW13.0 kmh SSW 21.9 mph35.2 kmh 30.01 in1016.3 mb - 0.00 in0.0 mm 0.00 in0.0 mm
01:50 AM 50.4°F10.2°C 48.5°F9.2°C 93% 9.2 mph SSW14.8 kmh SSW 11.5 mph18.5 kmh 30.00 in1015.9 mb - 0.00 in0.0 mm 0.00 in0.0 mm
02:00 AM 50.5°F10.3°C 48.3°F9.1°C 92% 6.9 mph SW11.1 kmh SW 10.4 mph16.7 kmh 30.00 in1015.9 mb - 0.00 in0.0 mm 0.00 in0.0 mm
02:10 AM 50.5°F10.3°C 48.0°F8.9°C 91% 6.9 mph SSW11.1 kmh SSW 13.8 mph22.2 kmh 30.00 in1015.9 mb - 0.00 in0.0 mm 0.00 in0.0 mm
02:20 AM 50.5°F10.3°C 48.0°F8.9°C 91% 6.9 mph SW11.1 kmh SW 13.8 mph22.2 kmh 30.00 in1015.9 mb - 0.00 in0.0 mm 0.00 in0.0 mm
02:30 AM 50.5°F10.3°C 47.7°F8.7°C 90% 4.6 mph S7.4 kmh S 11.5 mph18.5 kmh 30.00 in1015.9 mb - 0.00 in0.0 mm 0.00 in0.0 mm
02:40 AM 50.6°F10.3°C 47.8°F8.8°C 90% 6.9 mph S11.1 kmh S 11.5 mph18.5 kmh 30.00 in1015.9 mb - 0.00 in0.0 mm 0.00 in0.0 mm
02:50 AM 50.7°F10.4°C 47.9°F8.8°C 90% 9.2 mph S14.8 kmh S 12.7 mph20.4 kmh 29.99 in1015.6 mb - 0.00 in0.0 mm 0.00 in0.0 mm
03:00 AM 50.8°F10.4°C 48.3°F9.1°C 91% 10.4 mph S16.7 kmh S 13.8 mph22.2 kmh 29.98 in1015.2 mb - 0.00 in0.0 mm 0.00 in0.0 mm
03:10 AM 50.7°F10.4°C 48.2°F9.0°C 91% 8.1 mph SSW13.0 kmh SSW 12.7 mph20.4 kmh 29.98 in1015.2 mb - 0.00 in0.0 mm 0.00 in0.0 mm
03:20 AM 50.5°F10.3°C 47.7°F8.7°C 90% 8.1 mph SSW13.0 kmh SSW 12.7 mph20.4 kmh 29.97 in1014.9 mb - 0.00 in0.0 mm 0.00 in0.0 mm
03:30 AM 50.4°F10.2°C 47.6°F8.7°C 90% 8.1 mph SW13.0 kmh SW 11.5 mph18.5 kmh 29.97 in1014.9 mb - 0.00 in0.0 mm 0.00 in0.0 mm
03:40 AM 50.2°F10.1°C 47.4°F8.6°C 90% 8.1 mph S13.0 kmh S 15.0 mph24.1 kmh 29.96 in1014.6 mb - 0.00 in0.0 mm 0.00 in0.0 mm
03:50 AM 50.3°F10.2°C 47.4°F8.6°C 90% 8.1 mph S13.0 kmh S 13.8 mph22.2 kmh 29.96 in1014.6 mb - 0.00 in0.0 mm 0.00 in0.0 mm
04:00 AM 50.3°F10.2°C 47.4°F8.6°C 90% 8.1 mph SW13.0 kmh SW 13.8 mph22.2 kmh 29.95 in1014.2 mb - 0.00 in0.0 mm 0.00 in0.0 mm
04:10 AM 50.2°F10.1°C 47.6°F8.7°C 91% 6.9 mph S11.1 kmh S 11.5 mph18.5 kmh 29.95 in1014.2 mb - 0.00 in0.0 mm 0.00 in0.0 mm
04:20 AM 50.0°F10.0°C 47.8°F8.8°C 92% 6.9 mph SSW11.1 kmh SSW 13.8 mph22.2 kmh 29.94 in1013.9 mb - 0.00 in0.0 mm 0.00 in0.0 mm
04:30 AM 49.9°F9.9°C 47.7°F8.7°C 92% 6.9 mph SSW11.1 kmh SSW 11.5 mph18.5 kmh 29.94 in1013.9 mb - 0.00 in0.0 mm 0.00 in0.0 mm
04:40 AM 49.9°F9.9°C 48.0°F8.9°C 93% 8.1 mph SSW13.0 kmh SSW 13.8 mph22.2 kmh 29.93 in1013.5 mb - 0.00 in0.0 mm 0.00 in0.0 mm
04:50 AM 50.0°F10.0°C 48.1°F8.9°C 93% 10.4 mph S16.7 kmh S 16.1 mph25.9 kmh 29.93 in1013.5 mb - 0.00 in0.0 mm 0.00 in0.0 mm
05:00 AM 50.2°F10.1°C 48.3°F9.1°C 93% 8.1 mph S13.0 kmh S 11.5 mph18.5 kmh 29.92 in1013.2 mb - 0.00 in0.0 mm 0.00 in0.0 mm
05:10 AM 50.3°F10.2°C 48.4°F9.1°C 93% 9.2 mph SSW14.8 kmh SSW 12.7 mph20.4 kmh 29.91 in1012.9 mb - 0.00 in0.0 mm 0.00 in0.0 mm
05:20 AM 50.6°F10.3°C 48.3°F9.1°C 92% 13.8 mph S22.2 kmh S 21.9 mph35.2 kmh 29.91 in1012.9 mb - 0.00 in0.0 mm 0.00 in0.0 mm
05:30 AM 50.9°F10.5°C 48.4°F9.1°C 91% 11.5 mph S18.5 kmh S 24.2 mph38.9 kmh 29.91 in1012.9 mb - 0.00 in0.0 mm 0.00 in0.0 mm
05:40 AM 51.0°F10.6°C 48.4°F9.1°C 91% 10.4 mph SSW16.7 kmh SSW 16.1 mph25.9 kmh 29.90 in1012.5 mb - 0.00 in0.0 mm 0.00 in0.0 mm
05:50 AM 51.0°F10.6°C 48.5°F9.2°C 91% 12.7 mph S20.4 kmh S 21.9 mph35.2 kmh 29.90 in1012.5 mb - 0.00 in0.0 mm 0.00 in0.0 mm
06:00 AM 51.0°F10.6°C 48.5°F9.2°C 91% 8.1 mph S13.0 kmh S 11.5 mph18.5 kmh 29.90 in1012.5 mb - 0.00 in0.0 mm 0.00 in0.0 mm
06:10 AM 51.0°F10.6°C 48.2°F9.0°C 90% 11.5 mph SSW18.5 kmh SSW 15.0 mph24.1 kmh 29.89 in1012.2 mb - 0.00 in0.0 mm 0.00 in0.0 mm
06:20 AM 51.1°F10.6°C 48.0°F8.9°C 89% 8.1 mph S13.0 kmh S 11.5 mph18.5 kmh 29.89 in1012.2 mb - 0.00 in0.0 mm 0.00 in0.0 mm
06:30 AM 51.0°F10.6°C 47.9°F8.8°C 89% 6.9 mph SSW11.1 kmh SSW 10.4 mph16.7 kmh 29.89 in1012.2 mb - 0.00 in0.0 mm 0.00 in0.0 mm
06:40 AM 51.1°F10.6°C 48.0°F8.9°C 89% 10.4 mph S16.7 kmh S 15.0 mph24.1 kmh 29.88 in1011.9 mb - 0.00 in0.0 mm 0.00 in0.0 mm
06:50 AM 51.2°F10.7°C 47.8°F8.8°C 88% 8.1 mph S13.0 kmh S 15.0 mph24.1 kmh 29.88 in1011.9 mb - 0.00 in0.0 mm 0.00 in0.0 mm
07:00 AM 51.3°F10.7°C 47.9°F8.8°C 88% 8.1 mph S13.0 kmh S 13.8 mph22.2 kmh 29.88 in1011.9 mb - 0.00 in0.0 mm 0.00 in0.0 mm
07:10 AM 51.4°F10.8°C 48.0°F8.9°C 88% 13.8 mph S22.2 kmh S 18.4 mph29.6 kmh 29.87 in1011.5 mb - 0.00 in0.0 mm 0.00 in0.0 mm
07:20 AM 51.5°F10.8°C 48.3°F9.1°C 89% 9.2 mph S14.8 kmh S 11.5 mph18.5 kmh 29.86 in1011.2 mb - 0.00 in0.0 mm 0.00 in0.0 mm
07:30 AM 51.4°F10.8°C 48.6°F9.2°C 90% 9.2 mph S14.8 kmh S 13.8 mph22.2 kmh 29.86 in1011.2 mb - 0.00 in0.0 mm 0.00 in0.0 mm
07:40 AM 51.3°F10.7°C 48.8°F9.3°C 91% 9.2 mph SSW14.8 kmh SSW 11.5 mph18.5 kmh 29.85 in1010.8 mb - 0.00 in0.0 mm 0.00 in0.0 mm
07:50 AM 51.2°F10.7°C 48.7°F9.3°C 91% 9.2 mph S14.8 kmh S 19.6 mph31.5 kmh 29.85 in1010.8 mb - 0.00 in0.0 mm 0.00 in0.0 mm
08:00 AM 51.0°F10.6°C 48.8°F9.3°C 92% 13.8 mph S22.2 kmh S 20.7 mph33.3 kmh 29.85 in1010.8 mb - 0.00 in0.0 mm 0.00 in0.0 mm
08:10 AM 51.1°F10.6°C 48.9°F9.4°C 92% 5.8 mph S9.3 kmh S 11.5 mph18.5 kmh 29.84 in1010.5 mb - 0.00 in0.0 mm 0.00 in0.0 mm
08:20 AM 51.2°F10.7°C 49.0°F9.4°C 92% 9.2 mph S14.8 kmh S 18.4 mph29.6 kmh 29.84 in1010.5 mb - 0.00 in0.0 mm 0.00 in0.0 mm
08:30 AM 51.1°F10.6°C 48.6°F9.2°C 91% 10.4 mph S16.7 kmh S 16.1 mph25.9 kmh 29.84 in1010.5 mb - 0.00 in0.0 mm 0.00 in0.0 mm
08:40 AM 51.1°F10.6°C 48.3°F9.1°C 90% 8.1 mph SSW13.0 kmh SSW 13.8 mph22.2 kmh 29.84 in1010.5 mb - 0.00 in0.0 mm 0.00 in0.0 mm
08:50 AM 51.1°F10.6°C 48.3°F9.1°C 90% 11.5 mph SSW18.5 kmh SSW 20.7 mph33.3 kmh 29.83 in1010.2 mb - 0.00 in0.0 mm 0.00 in0.0 mm
09:00 AM 51.1°F10.6°C 48.3°F9.1°C 90% 6.9 mph S11.1 kmh S 12.7 mph20.4 kmh 29.83 in1010.2 mb - 0.00 in0.0 mm 0.00 in0.0 mm
09:10 AM 51.2°F10.7°C 48.1°F8.9°C 89% 11.5 mph S18.5 kmh S 19.6 mph31.5 kmh 29.83 in1010.2 mb - 0.00 in0.0 mm 0.00 in0.0 mm
09:20 AM 51.5°F10.8°C 48.0°F8.9°C 88% 9.2 mph S14.8 kmh S 11.5 mph18.5 kmh 29.82 in1009.8 mb - 0.00 in0.0 mm 0.00 in0.0 mm
09:30 AM 51.7°F10.9°C 48.3°F9.1°C 88% 6.9 mph S11.1 kmh S 9.2 mph14.8 kmh 29.82 in1009.8 mb - 0.00 in0.0 mm 0.00 in0.0 mm
09:40 AM 51.8°F11.0°C 48.7°F9.3°C 89% 6.9 mph S11.1 kmh S 12.7 mph20.4 kmh 29.81 in1009.5 mb - 0.00 in0.0 mm 0.00 in0.0 mm
09:50 AM 51.9°F11.1°C 48.8°F9.3°C 89% 10.4 mph S16.7 kmh S 16.1 mph25.9 kmh 29.81 in1009.5 mb - 0.00 in0.0 mm 0.00 in0.0 mm
10:00 AM 52.0°F11.1°C 49.2°F9.6°C 90% 9.2 mph SSW14.8 kmh SSW 13.8 mph22.2 kmh 29.81 in1009.5 mb - 0.00 in0.0 mm 0.00 in0.0 mm
10:10 AM 52.1°F11.2°C 49.2°F9.6°C 90% 6.9 mph S11.1 kmh S 13.8 mph22.2 kmh 29.81 in1009.5 mb - 0.00 in0.0 mm 0.00 in0.0 mm
10:20 AM 52.1°F11.2°C 49.3°F9.6°C 90% 6.9 mph SSW11.1 kmh SSW 16.1 mph25.9 kmh 29.80 in1009.1 mb - 0.00 in0.0 mm 0.00 in0.0 mm
10:30 AM 52.1°F11.2°C 49.3°F9.6°C 90% 6.9 mph S11.1 kmh S 12.7 mph20.4 kmh 29.80 in1009.1 mb - 0.00 in0.0 mm 0.00 in0.0 mm
10:40 AM 52.2°F11.2°C 49.4°F9.7°C 90% 9.2 mph S14.8 kmh S 18.4 mph29.6 kmh 29.79 in1008.8 mb - 0.00 in0.0 mm 0.00 in0.0 mm
10:50 AM 52.4°F11.3°C 49.6°F9.8°C 90% 12.7 mph S20.4 kmh S 18.4 mph29.6 kmh 29.78 in1008.5 mb - 0.00 in0.0 mm 0.00 in0.0 mm
11:00 AM 52.7°F11.5°C 49.5°F9.7°C 89% 9.2 mph S14.8 kmh S 12.7 mph20.4 kmh 29.77 in1008.1 mb - 0.00 in0.0 mm 0.00 in0.0 mm
11:10 AM 52.8°F11.6°C 49.6°F9.8°C 89% 10.4 mph SW16.7 kmh SW 20.7 mph33.3 kmh 29.76 in1007.8 mb - 0.00 in0.0 mm 0.00 in0.0 mm
11:20 AM 52.9°F11.6°C 49.7°F9.8°C 89% 11.5 mph S18.5 kmh S 16.1 mph25.9 kmh 29.75 in1007.5 mb - 0.00 in0.0 mm 0.00 in0.0 mm
11:30 AM 53.0°F11.7°C 50.1°F10.1°C 90% 10.4 mph S16.7 kmh S 15.0 mph24.1 kmh 29.74 in1007.1 mb - 0.00 in0.0 mm 0.00 in0.0 mm
11:40 AM 52.9°F11.6°C 50.1°F10.1°C 90% 9.2 mph S14.8 kmh S 16.1 mph25.9 kmh 29.73 in1006.8 mb - 0.00 in0.0 mm 0.00 in0.0 mm
11:50 AM 52.9°F11.6°C 50.0°F10.0°C 90% 16.1 mph S25.9 kmh S 23.0 mph37.0 kmh 29.72 in1006.4 mb - 0.00 in0.0 mm 0.00 in0.0 mm
12:00 PM 53.0°F11.7°C 50.1°F10.1°C 90% 16.1 mph S25.9 kmh S 27.6 mph44.4 kmh 29.71 in1006.1 mb - 0.00 in0.0 mm 0.00 in0.0 mm
12:10 PM 53.0°F11.7°C 50.1°F10.1°C 90% 17.3 mph SSW27.8 kmh SSW 27.6 mph44.4 kmh 29.71 in1006.1 mb - 0.00 in0.0 mm 0.00 in0.0 mm
12:20 PM 53.0°F11.7°C 50.1°F10.1°C 90% 16.1 mph SSW25.9 kmh SSW 25.3 mph40.7 kmh 29.70 in1005.8 mb - 0.00 in0.0 mm 0.00 in0.0 mm
12:30 PM 53.0°F11.7°C 49.9°F9.9°C 89% 13.8 mph SSW22.2 kmh SSW 23.0 mph37.0 kmh 29.70 in1005.8 mb - 0.00 in0.0 mm 0.00 in0.0 mm
12:40 PM 53.0°F11.7°C 49.8°F9.9°C 89% 11.5 mph S18.5 kmh S 19.6 mph31.5 kmh 29.69 in1005.4 mb - 0.00 in0.0 mm 0.00 in0.0 mm
12:50 PM 52.9°F11.6°C 49.7°F9.8°C 89% 13.8 mph SSW22.2 kmh SSW 19.6 mph31.5 kmh 29.68 in1005.1 mb - 0.00 in0.0 mm 0.00 in0.0 mm
01:00 PM 52.9°F11.6°C 50.0°F10.0°C 90% 13.8 mph S22.2 kmh S 27.6 mph44.4 kmh 29.68 in1005.1 mb - 0.00 in0.0 mm 0.00 in0.0 mm
01:10 PM 52.9°F11.6°C 50.0°F10.0°C 90% 17.3 mph S27.8 kmh S 27.6 mph44.4 kmh 29.67 in1004.7 mb - 0.00 in0.0 mm 0.00 in0.0 mm
01:20 PM 53.0°F11.7°C 49.8°F9.9°C 89% 10.4 mph S16.7 kmh S 19.6 mph31.5 kmh 29.66 in1004.4 mb - 0.00 in0.0 mm 0.00 in0.0 mm
01:30 PM 53.0°F11.7°C 49.8°F9.9°C 89% 12.7 mph S20.4 kmh S 18.4 mph29.6 kmh 29.65 in1004.1 mb - 0.00 in0.0 mm 0.00 in0.0 mm
01:40 PM 52.9°F11.6°C 49.7°F9.8°C 89% 16.1 mph S25.9 kmh S 27.6 mph44.4 kmh 29.64 in1003.7 mb - 0.00 in0.0 mm 0.00 in0.0 mm
01:50 PM 53.0°F11.7°C 49.8°F9.9°C 89% 10.4 mph S16.7 kmh S 20.7 mph33.3 kmh 29.63 in1003.4 mb - 0.00 in0.0 mm 0.00 in0.0 mm
02:00 PM 52.9°F11.6°C 49.8°F9.9°C 89% 17.3 mph SSW27.8 kmh SSW 25.3 mph40.7 kmh 29.62 in1003.0 mb - 0.00 in0.0 mm 0.00 in0.0 mm
02:10 PM 53.1°F11.7°C 49.6°F9.8°C 88% 15.0 mph SSW24.1 kmh SSW 21.9 mph35.2 kmh 29.62 in1003.0 mb - 0.00 in0.0 mm 0.00 in0.0 mm
02:20 PM 53.0°F11.7°C 49.5°F9.7°C 88% 17.3 mph S27.8 kmh S 29.9 mph48.1 kmh 29.61 in1002.7 mb - 0.00 in0.0 mm 0.00 in0.0 mm
02:30 PM 53.0°F11.7°C 49.8°F9.9°C 89% 16.1 mph S25.9 kmh S 25.3 mph40.7 kmh 29.61 in1002.7 mb - 0.00 in0.0 mm 0.00 in0.0 mm
02:40 PM 52.7°F11.5°C 49.8°F9.9°C 90% 12.7 mph S20.4 kmh S 16.1 mph25.9 kmh 29.60 in1002.4 mb - 0.00 in0.0 mm 0.00 in0.0 mm
02:50 PM 52.4°F11.3°C 49.5°F9.7°C 90% 10.4 mph SSW16.7 kmh SSW 19.6 mph31.5 kmh 29.59 in1002.0 mb - 0.00 in0.0 mm 0.00 in0.0 mm
03:00 PM 52.3°F11.3°C 49.5°F9.7°C 90% 13.8 mph S22.2 kmh S 24.2 mph38.9 kmh 29.58 in1001.7 mb - 0.00 in0.0 mm 0.00 in0.0 mm
03:10 PM 52.4°F11.3°C 49.6°F9.8°C 90% 12.7 mph S20.4 kmh S 20.7 mph33.3 kmh 29.58 in1001.7 mb - 0.00 in0.0 mm 0.00 in0.0 mm
03:20 PM 52.4°F11.3°C 49.6°F9.8°C 90% 15.0 mph S24.1 kmh S 26.5 mph42.6 kmh 29.57 in1001.4 mb - 0.00 in0.0 mm 0.00 in0.0 mm
03:30 PM 52.4°F11.3°C 49.6°F9.8°C 90% 11.5 mph S18.5 kmh S 18.4 mph29.6 kmh 29.56 in1001.0 mb - 0.00 in0.0 mm 0.00 in0.0 mm
03:40 PM 52.3°F11.3°C 49.8°F9.9°C 91% 12.7 mph S20.4 kmh S 15.0 mph24.1 kmh 29.56 in1001.0 mb - 0.01 in0.3 mm 0.01 in0.3 mm
03:50 PM 52.0°F11.1°C 49.7°F9.8°C 92% 11.5 mph S18.5 kmh S 19.6 mph31.5 kmh 29.55 in1000.7 mb - 0.00 in0.0 mm 0.01 in0.3 mm
04:00 PM 51.9°F11.1°C 49.7°F9.8°C 92% 11.5 mph S18.5 kmh S 21.9 mph35.2 kmh 29.54 in1000.3 mb - 0.00 in0.0 mm 0.01 in0.3 mm
04:10 PM 51.9°F11.1°C 49.7°F9.8°C 92% 12.7 mph S20.4 kmh S 24.2 mph38.9 kmh 29.53 in1000.0 mb - 0.00 in0.0 mm 0.01 in0.3 mm
04:20 PM 52.0°F11.1°C 49.7°F9.8°C 92% 15.0 mph S24.1 kmh S 26.5 mph42.6 kmh 29.52 in999.7 mb - 0.00 in0.0 mm 0.01 in0.3 mm
04:30 PM 52.0°F11.1°C 49.7°F9.8°C 92% 12.7 mph S20.4 kmh S 16.1 mph25.9 kmh 29.51 in999.3 mb - 0.00 in0.0 mm 0.01 in0.3 mm
04:40 PM 51.9°F11.1°C 49.6°F9.8°C 92% 9.2 mph S14.8 kmh S 15.0 mph24.1 kmh 29.50 in999.0 mb - 0.00 in0.0 mm 0.01 in0.3 mm
04:50 PM 51.9°F11.1°C 49.4°F9.7°C 91% 10.4 mph S16.7 kmh S 19.6 mph31.5 kmh 29.50 in999.0 mb - 0.00 in0.0 mm 0.01 in0.3 mm
05:00 PM 52.0°F11.1°C 49.5°F9.7°C 91% 11.5 mph S18.5 kmh S 21.9 mph35.2 kmh 29.49 in998.6 mb - 0.00 in0.0 mm 0.01 in0.3 mm
05:10 PM 52.0°F11.1°C 49.4°F9.7°C 91% 12.7 mph S20.4 kmh S 23.0 mph37.0 kmh 29.48 in998.3 mb - 0.02 in0.5 mm 0.02 in0.5 mm
05:20 PM 51.6°F10.9°C 49.4°F9.7°C 92% 8.1 mph S13.0 kmh S 12.7 mph20.4 kmh 29.47 in998.0 mb - 0.02 in0.5 mm 0.05 in1.3 mm
05:30 PM 51.2°F10.7°C 49.2°F9.6°C 93% 10.4 mph S16.7 kmh S 16.1 mph25.9 kmh 29.46 in997.6 mb - 0.04 in1.0 mm 0.09 in2.3 mm
05:40 PM 50.9°F10.5°C 49.2°F9.6°C 94% 18.4 mph S29.6 kmh S 32.2 mph51.8 kmh 29.45 in997.3 mb - 0.03 in0.8 mm 0.11 in2.8 mm
05:50 PM 50.9°F10.5°C 49.3°F9.6°C 94% 16.1 mph S25.9 kmh S 28.8 mph46.3 kmh 29.45 in997.3 mb - 0.02 in0.5 mm 0.13 in3.3 mm
06:00 PM 50.8°F10.4°C 49.1°F9.5°C 94% 15.0 mph S24.1 kmh S 25.3 mph40.7 kmh 29.44 in997.0 mb - 0.05 in1.3 mm 0.17 in4.3 mm
06:10 PM 50.7°F10.4°C 49.1°F9.5°C 94% 11.5 mph S18.5 kmh S 24.2 mph38.9 kmh 29.44 in997.0 mb - 0.01 in0.3 mm 0.18 in4.6 mm
06:20 PM 50.7°F10.4°C 49.3°F9.6°C 95% 17.3 mph S27.8 kmh S 28.8 mph46.3 kmh 29.42 in996.3 mb - 0.01 in0.3 mm 0.19 in4.8 mm
06:30 PM 50.8°F10.4°C 49.1°F9.5°C 94% 13.8 mph S22.2 kmh S 29.9 mph48.1 kmh 29.41 in995.9 mb - 0.00 in0.0 mm 0.19 in4.8 mm
06:40 PM 50.8°F10.4°C 49.1°F9.5°C 94% 12.7 mph S20.4 kmh S 24.2 mph38.9 kmh 29.40 in995.6 mb - 0.02 in0.5 mm 0.21 in5.3 mm
06:50 PM 50.9°F10.5°C 49.2°F9.6°C 94% 13.8 mph S22.2 kmh S 23.0 mph37.0 kmh 29.39 in995.3 mb - 0.02 in0.5 mm 0.22 in5.6 mm
07:00 PM 50.9°F10.5°C 49.5°F9.7°C 95% 10.4 mph SSW16.7 kmh SSW 23.0 mph37.0 kmh 29.39 in995.3 mb - 0.02 in0.5 mm 0.24 in6.1 mm
07:10 PM 50.8°F10.4°C 49.4°F9.7°C 95% 13.8 mph SSW22.2 kmh SSW 19.6 mph31.5 kmh 29.41 in995.9 mb - 0.03 in0.8 mm 0.27 in6.9 mm
07:20 PM 46.9°F8.3°C 44.1°F6.7°C 90% 8.1 mph WSW13.0 kmh WSW 13.8 mph22.2 kmh 29.43 in996.6 mb - 0.10 in2.5 mm 0.37 in9.4 mm
07:30 PM 45.0°F7.2°C 42.9°F6.1°C 92% 6.9 mph SW11.1 kmh SW 11.5 mph18.5 kmh 29.43 in996.6 mb - 0.09 in2.3 mm 0.45 in11.4 mm
07:40 PM 44.0°F6.7°C 42.1°F5.6°C 93% 3.5 mph SW5.6 kmh SW 10.4 mph16.7 kmh 29.43 in996.6 mb - 0.04 in1.0 mm 0.49 in12.4 mm
07:50 PM 43.1°F6.2°C 41.2°F5.1°C 93% 4.6 mph SW7.4 kmh SW 5.8 mph9.3 kmh 29.44 in997.0 mb - 0.03 in0.8 mm 0.52 in13.2 mm
08:00 PM 42.4°F5.8°C 40.5°F4.7°C 93% 3.5 mph WSW5.6 kmh WSW 6.9 mph11.1 kmh 29.44 in997.0 mb - 0.02 in0.5 mm 0.54 in13.7 mm
08:10 PM 41.9°F5.5°C 40.0°F4.4°C 93% 3.5 mph SW5.6 kmh SW 4.6 mph7.4 kmh 29.44 in997.0 mb - 0.02 in0.5 mm 0.55 in14.0 mm
08:20 PM 41.5°F5.3°C 39.6°F4.2°C 93% 3.5 mph WSW5.6 kmh WSW 9.2 mph14.8 kmh 29.45 in997.3 mb - 0.02 in0.5 mm 0.57 in14.5 mm
08:30 PM 41.2°F5.1°C 39.6°F4.2°C 94% Calm Calm 3.5 mph5.6 kmh 29.45 in997.3 mb - 0.02 in0.5 mm 0.58 in14.7 mm
08:40 PM 41.1°F5.1°C 39.5°F4.2°C 94% Calm Calm -- 29.45 in997.3 mb - 0.02 in0.5 mm 0.61 in15.5 mm
08:50 PM 41.0°F5.0°C 39.4°F4.1°C 94% 2.3 mph WNW3.7 kmh WNW 6.9 mph11.1 kmh 29.45 in997.3 mb - 0.01 in0.3 mm 0.61 in15.5 mm
09:00 PM 41.0°F5.0°C 39.4°F4.1°C 94% Calm Calm -- 29.46 in997.6 mb - 0.01 in0.3 mm 0.62 in15.7 mm
09:10 PM 41.1°F5.1°C 39.8°F4.3°C 95% Calm Calm -- 29.46 in997.6 mb - 0.01 in0.3 mm 0.63 in16.0 mm
09:20 PM 41.1°F5.1°C 39.8°F4.3°C 95% 2.3 mph SW3.7 kmh SW 2.3 mph3.7 kmh 29.46 in997.6 mb - 0.01 in0.3 mm 0.63 in16.0 mm
09:30 PM 41.0°F5.0°C 39.7°F4.3°C 95% 3.5 mph SW5.6 kmh SW 4.6 mph7.4 kmh 29.46 in997.6 mb - 0.01 in0.3 mm 0.64 in16.3 mm
09:40 PM 41.0°F5.0°C 39.6°F4.2°C 95% Calm Calm -- 29.47 in998.0 mb - 0.01 in0.3 mm 0.64 in16.3 mm
09:50 PM 41.0°F5.0°C 39.7°F4.3°C 95% Calm Calm -- 29.47 in998.0 mb - 0.00 in0.0 mm 0.64 in16.3 mm
10:00 PM 41.0°F5.0°C 39.7°F4.3°C 95% 2.3 mph SSW3.7 kmh SSW 6.9 mph11.1 kmh 29.48 in998.3 mb - 0.01 in0.3 mm 0.65 in16.5 mm
10:10 PM 41.0°F5.0°C 39.7°F4.3°C 95% Calm Calm -- 29.48 in998.3 mb - 0.00 in0.0 mm 0.65 in16.5 mm
10:20 PM 41.0°F5.0°C 39.7°F4.3°C 95% 1.2 mph SW1.9 kmh SW 8.1 mph13.0 kmh 29.49 in998.6 mb - 0.00 in0.0 mm 0.65 in16.5 mm
10:30 PM 41.1°F5.1°C 39.7°F4.3°C 95% 3.5 mph SW5.6 kmh SW 5.8 mph9.3 kmh 29.49 in998.6 mb - 0.01 in0.3 mm 0.65 in16.5 mm
10:40 PM 41.1°F5.1°C 39.8°F4.3°C 95% Calm Calm -- 29.49 in998.6 mb - 0.00 in0.0 mm 0.65 in16.5 mm
10:50 PM 41.1°F5.1°C 40.0°F4.4°C 96% 1.2 mph SW1.9 kmh SW 6.9 mph11.1 kmh 29.49 in998.6 mb - 0.00 in0.0 mm 0.65 in16.5 mm
11:00 PM 41.2°F5.1°C 40.1°F4.5°C 96% 1.2 mph SW1.9 kmh SW 8.1 mph13.0 kmh 29.50 in999.0 mb - 0.00 in0.0 mm 0.65 in16.5 mm
11:10 PM 41.1°F5.1°C 40.1°F4.5°C 96% 3.5 mph SW5.6 kmh SW 5.8 mph9.3 kmh 29.50 in999.0 mb - 0.00 in0.0 mm 0.65 in16.5 mm
11:20 PM 41.0°F5.0°C 39.7°F4.3°C 95% 1.2 mph SW1.9 kmh SW 4.6 mph7.4 kmh 29.50 in999.0 mb - 0.00 in0.0 mm 0.65 in16.5 mm
11:30 PM 40.9°F4.9°C 39.6°F4.2°C 95% 3.5 mph WSW5.6 kmh WSW 6.9 mph11.1 kmh 29.51 in999.3 mb - 0.00 in0.0 mm 0.65 in16.5 mm
11:40 PM 40.9°F4.9°C 39.6°F4.2°C 95% 1.2 mph SW1.9 kmh SW -- 29.51 in999.3 mb - 0.00 in0.0 mm 0.65 in16.5 mm
11:50 PM 40.7°F4.8°C 39.4°F4.1°C 95% 1.2 mph SW1.9 kmh SW 4.6 mph7.4 kmh 29.50 in999.0 mb - 0.00 in0.0 mm 0.65 in16.5 mm